Startpagina
METAR-TAF:

METAR-TAF

Vliegvelden :

Shell, Ecuador

breedte: 01-30-19S, lengte: 078-03-46W, hoogte: 1056 m

Actueel weer

Dit bericht is 56 minuten geleden gemaakt, om 13:00 UTC
Wind 2 kt uit het oostnoordoosten
Temperatuur 20°C
Vochtigheid 94%
Druk 1020 hPa
Zicht: 2000 m
Verspreide wolken op 300 ft
Gebroken wolken op 2600 ft
Geheel bewolkt op 8000 ft
mistbanken

METAR: SESM 051300Z 07002KT 2000 BCFG SCT003 BKN026 OVC080 20/19 Q1020 RMK A3013

Tijdstip: 08:56 (13:56 UTC)


TAF: ontbreekt

Waarnemingen en weersverwachtingen van meer dan 4000 vliegvelden (METAR en TAF).

De beschikbare stations zijn de gele en rode punten op de kaart.

Ga met uw muis naar het station om de naam te zien.

Klik dan om waarnemingen en weersverwachtingen te zien.

kaart wijzigen: klik op de groene knoppen met een zwart kruis om in te zoomen, op de groene knop met een streepje om uit te zoomen of op de groene pijlen voor aangrenzende kaarten.


METAR-TAF: